sensor_id;sensor_type;location;lat;lon;timestamp;pressure;altitude;pressure_sealevel;temperature;humidity
9077;BME280;4574;51.072;17.174;2023-08-31T00:01:04;99356.41;;;16.53;100.00
9077;BME280;4574;51.072;17.174;2023-08-31T00:03:32;99357.19;;;16.54;100.00
9077;BME280;4574;51.072;17.174;2023-08-31T00:06:01;99350.22;;;16.53;100.00
9077;BME280;4574;51.072;17.174;2023-08-31T00:08:30;99353.50;;;16.48;100.00
9077;BME280;4574;51.072;17.174;2023-08-31T00:11:01;99358.63;;;16.50;100.00
9077;BME280;4574;51.072;17.174;2023-08-31T00:13:29;99365.63;;;16.51;100.00
9077;BME280;4574;51.072;17.174;2023-08-31T00:15:58;99363.97;;;16.50;100.00
9077;BME280;4574;51.072;17.174;2023-08-31T00:18:26;99354.72;;;16.46;100.00
9077;BME280;4574;51.072;17.174;2023-08-31T00:20:55;99367.06;;;16.47;100.00
9077;BME280;4574;51.072;17.174;2023-08-31T00:23:25;99363.78;;;16.45;100.00
9077;BME280;4574;51.072;17.174;2023-08-31T00:25:53;99367.47;;;16.44;100.00
9077;BME280;4574;51.072;17.174;2023-08-31T00:28:25;99360.69;;;16.41;100.00
9077;BME280;4574;51.072;17.174;2023-08-31T00:30:54;99367.06;;;16.40;100.00
9077;BME280;4574;51.072;17.174;2023-08-31T00:33:22;99351.03;;;16.40;100.00
9077;BME280;4574;51.072;17.174;2023-08-31T00:35:53;99355.78;;;16.38;100.00
9077;BME280;4574;51.072;17.174;2023-08-31T00:38:23;99344.47;;;16.36;100.00
9077;BME280;4574;51.072;17.174;2023-08-31T00:40:53;99352.06;;;16.33;100.00
9077;BME280;4574;51.072;17.174;2023-08-31T00:43:22;99338.88;;;16.25;100.00
9077;BME280;4574;51.072;17.174;2023-08-31T00:45:54;99342.78;;;16.29;100.00
9077;BME280;4574;51.072;17.174;2023-08-31T00:48:25;99340.09;;;16.29;100.00
9077;BME280;4574;51.072;17.174;2023-08-31T00:50:54;99339.06;;;16.30;100.00
9077;BME280;4574;51.072;17.174;2023-08-31T00:53:23;99347.09;;;16.30;100.00
9077;BME280;4574;51.072;17.174;2023-08-31T00:55:52;99343.38;;;16.31;100.00
9077;BME280;4574;51.072;17.174;2023-08-31T00:58:21;99346.06;;;16.31;100.00
9077;BME280;4574;51.072;17.174;2023-08-31T01:01:00;99342.38;;;16.32;100.00
9077;BME280;4574;51.072;17.174;2023-08-31T01:03:42;99339.69;;;16.32;100.00
9077;BME280;4574;51.072;17.174;2023-08-31T01:06:16;99336.41;;;16.30;100.00
9077;BME280;4574;51.072;17.174;2023-08-31T01:08:56;99335.38;;;16.31;100.00
9077;BME280;4574;51.072;17.174;2023-08-31T01:11:32;99338.03;;;16.31;100.00
9077;BME280;4574;51.072;17.174;2023-08-31T01:14:08;99332.94;;;16.29;100.00
9077;BME280;4574;51.072;17.174;2023-08-31T01:16:42;99346.06;;;16.31;100.00
9077;BME280;4574;51.072;17.174;2023-08-31T01:19:21;99349.75;;;16.30;100.00
9077;BME280;4574;51.072;17.174;2023-08-31T01:21:58;99356.34;;;16.27;100.00
9077;BME280;4574;51.072;17.174;2023-08-31T01:24:30;99354.28;;;16.23;100.00
9077;BME280;4574;51.072;17.174;2023-08-31T01:26:59;99359.41;;;16.24;100.00
9077;BME280;4574;51.072;17.174;2023-08-31T01:29:29;99348.53;;;16.19;100.00
9077;BME280;4574;51.072;17.174;2023-08-31T01:31:58;99352.84;;;16.20;100.00
9077;BME280;4574;51.072;17.174;2023-08-31T01:34:27;99349.34;;;16.20;100.00
9077;BME280;4574;51.072;17.174;2023-08-31T01:36:58;99346.25;;;16.16;100.00
9077;BME280;4574;51.072;17.174;2023-08-31T01:39:35;99351.16;;;16.13;100.00
9077;BME280;4574;51.072;17.174;2023-08-31T01:42:11;99349.31;;;16.07;100.00
9077;BME280;4574;51.072;17.174;2023-08-31T01:44:41;99351.78;;;16.02;100.00
9077;BME280;4574;51.072;17.174;2023-08-31T01:47:12;99355.88;;;15.98;100.00
9077;BME280;4574;51.072;17.174;2023-08-31T01:49:41;99351.97;;;15.94;100.00
9077;BME280;4574;51.072;17.174;2023-08-31T01:52:10;99356.28;;;15.95;100.00
9077;BME280;4574;51.072;17.174;2023-08-31T01:54:40;99354.81;;;15.93;100.00
9077;BME280;4574;51.072;17.174;2023-08-31T01:57:08;99342.63;;;15.71;100.00
9077;BME280;4574;51.072;17.174;2023-08-31T01:59:37;99359.84;;;15.55;100.00
9077;BME280;4574;51.072;17.174;2023-08-31T02:02:05;99361.88;;;15.60;100.00
9077;BME280;4574;51.072;17.174;2023-08-31T02:04:34;99355.72;;;15.53;100.00
9077;BME280;4574;51.072;17.174;2023-08-31T02:07:02;99361.41;;;15.43;100.00
9077;BME280;4574;51.072;17.174;2023-08-31T02:09:31;99358.34;;;15.46;100.00
9077;BME280;4574;51.072;17.174;2023-08-31T02:12:01;99354.84;;;15.39;100.00
9077;BME280;4574;51.072;17.174;2023-08-31T02:14:30;99356.75;;;15.24;100.00
9077;BME280;4574;51.072;17.174;2023-08-31T02:16:59;99354.88;;;15.18;100.00
9077;BME280;4574;51.072;17.174;2023-08-31T02:19:27;99354.88;;;15.18;100.00
9077;BME280;4574;51.072;17.174;2023-08-31T02:21:55;99354.88;;;15.18;100.00
9077;BME280;4574;51.072;17.174;2023-08-31T02:24:24;99357.53;;;15.18;100.00
9077;BME280;4574;51.072;17.174;2023-08-31T02:26:52;99363.09;;;15.23;100.00
9077;BME280;4574;51.072;17.174;2023-08-31T02:29:22;99355.31;;;15.22;100.00
9077;BME280;4574;51.072;17.174;2023-08-31T02:31:51;99366.31;;;15.33;100.00
9077;BME280;4574;51.072;17.174;2023-08-31T02:34:19;99365.91;;;15.36;100.00
9077;BME280;4574;51.072;17.174;2023-08-31T02:36:48;99366.53;;;15.38;100.00
9077;BME280;4574;51.072;17.174;2023-08-31T02:39:16;99362.84;;;15.39;100.00
9077;BME280;4574;51.072;17.174;2023-08-31T02:41:45;99359.16;;;15.40;100.00
9077;BME280;4574;51.072;17.174;2023-08-31T02:44:13;99355.22;;;15.36;100.00
9077;BME280;4574;51.072;17.174;2023-08-31T02:46:43;99356.03;;;15.37;100.00
9077;BME280;4574;51.072;17.174;2023-08-31T02:49:12;99359.53;;;15.37;100.00
9077;BME280;4574;51.072;17.174;2023-08-31T02:51:41;99364.47;;;15.40;100.00
9077;BME280;4574;51.072;17.174;2023-08-31T02:54:09;99365.09;;;15.42;100.00
9077;BME280;4574;51.072;17.174;2023-08-31T02:56:38;99359.56;;;15.44;100.00
9077;BME280;4574;51.072;17.174;2023-08-31T02:59:06;99364.09;;;15.43;100.00
9077;BME280;4574;51.072;17.174;2023-08-31T03:01:35;99357.09;;;15.42;100.00
9077;BME280;4574;51.072;17.174;2023-08-31T03:04:05;99360.59;;;15.43;100.00
9077;BME280;4574;51.072;17.174;2023-08-31T03:06:34;99351.16;;;15.40;100.00
9077;BME280;4574;51.072;17.174;2023-08-31T03:09:02;99355.25;;;15.43;100.00
9077;BME280;4574;51.072;17.174;2023-08-31T03:11:31;99364.09;;;15.43;100.00
9077;BME280;4574;51.072;17.174;2023-08-31T03:14:00;99356.09;;;15.43;100.00
9077;BME280;4574;51.072;17.174;2023-08-31T03:16:28;99352.59;;;15.43;100.00
9077;BME280;4574;51.072;17.174;2023-08-31T03:18:57;99347.66;;;15.40;100.00
9077;BME280;4574;51.072;17.174;2023-08-31T03:21:26;99357.69;;;15.38;100.00
9077;BME280;4574;51.072;17.174;2023-08-31T03:23:55;99358.53;;;15.38;100.00
9077;BME280;4574;51.072;17.174;2023-08-31T03:26:23;99359.34;;;15.39;100.00
9077;BME280;4574;51.072;17.174;2023-08-31T03:28:52;99358.53;;;15.38;100.00
9077;BME280;4574;51.072;17.174;2023-08-31T03:31:20;99361.19;;;15.38;100.00
9077;BME280;4574;51.072;17.174;2023-08-31T03:33:50;99356.03;;;15.30;100.00
9077;BME280;4574;51.072;17.174;2023-08-31T03:36:18;99362.59;;;15.34;100.00
9077;BME280;4574;51.072;17.174;2023-08-31T03:38:48;99367.94;;;15.34;100.00
9077;BME280;4574;51.072;17.174;2023-08-31T03:41:17;99359.31;;;15.32;100.00
9077;BME280;4574;51.072;17.174;2023-08-31T03:43:45;99361.78;;;15.34;100.00
9077;BME280;4574;51.072;17.174;2023-08-31T03:46:14;99351.06;;;15.27;100.00
9077;BME280;4574;51.072;17.174;2023-08-31T03:48:42;99365.84;;;15.30;100.00
9077;BME280;4574;51.072;17.174;2023-08-31T03:51:11;99366.88;;;15.29;100.00
9077;BME280;4574;51.072;17.174;2023-08-31T03:53:41;99367.50;;;15.31;100.00
9077;BME280;4574;51.072;17.174;2023-08-31T03:56:12;99365.00;;;15.29;100.00
9077;BME280;4574;51.072;17.174;2023-08-31T03:58:40;99361.34;;;15.30;100.00
9077;BME280;4574;51.072;17.174;2023-08-31T04:01:09;99354.72;;;15.26;100.00
9077;BME280;4574;51.072;17.174;2023-08-31T04:03:38;99358.03;;;15.28;100.00
9077;BME280;4574;51.072;17.174;2023-08-31T04:06:07;99359.91;;;15.28;100.00
9077;BME280;4574;51.072;17.174;2023-08-31T04:08:35;99361.91;;;15.26;100.00
9077;BME280;4574;51.072;17.174;2023-08-31T04:11:04;99352.66;;;15.22;100.00
9077;BME280;4574;51.072;17.174;2023-08-31T04:13:34;99359.41;;;15.24;100.00
9077;BME280;4574;51.072;17.174;2023-08-31T04:16:03;99368.25;;;15.25;100.00
9077;BME280;4574;51.072;17.174;2023-08-31T04:18:31;99360.44;;;15.23;100.00
9077;BME280;4574;51.072;17.174;2023-08-31T04:21:00;99371.31;;;15.22;100.00
9077;BME280;4574;51.072;17.174;2023-08-31T04:23:30;99366.16;;;15.20;100.00
9077;BME280;4574;51.072;17.174;2023-08-31T04:25:59;99368.66;;;15.22;100.00
9077;BME280;4574;51.072;17.174;2023-08-31T04:28:28;99371.50;;;15.20;100.00
9077;BME280;4574;51.072;17.174;2023-08-31T04:30:58;99370.88;;;15.18;100.00
9077;BME280;4574;51.072;17.174;2023-08-31T04:33:27;99371.50;;;15.20;100.00
9077;BME280;4574;51.072;17.174;2023-08-31T04:35:55;99376.81;;;15.20;100.00
9077;BME280;4574;51.072;17.174;2023-08-31T04:38:24;99375.81;;;15.21;100.00
9077;BME280;4574;51.072;17.174;2023-08-31T04:40:52;99370.47;;;15.21;100.00
9077;BME280;4574;51.072;17.174;2023-08-31T04:43:21;99373.97;;;15.22;100.00
9077;BME280;4574;51.072;17.174;2023-08-31T04:45:51;99372.34;;;15.21;100.00
9077;BME280;4574;51.072;17.174;2023-08-31T04:48:21;99366.38;;;15.19;100.00
9077;BME280;4574;51.072;17.174;2023-08-31T04:50:50;99378.69;;;15.20;100.00
9077;BME280;4574;51.072;17.174;2023-08-31T04:53:18;99372.72;;;15.18;100.00
9077;BME280;4574;51.072;17.174;2023-08-31T04:55:47;99369.84;;;15.19;100.00
9077;BME280;4574;51.072;17.174;2023-08-31T04:58:15;99376.81;;;15.20;100.00
9077;BME280;4574;51.072;17.174;2023-08-31T05:00:44;99372.34;;;15.21;100.00
9077;BME280;4574;51.072;17.174;2023-08-31T05:03:12;99376.66;;;15.22;100.00
9077;BME280;4574;51.072;17.174;2023-08-31T05:05:43;99379.50;;;15.20;100.00
9077;BME280;4574;51.072;17.174;2023-08-31T05:08:12;99390.78;;;15.22;100.00
9077;BME280;4574;51.072;17.174;2023-08-31T05:10:40;99393.28;;;15.24;100.00
9077;BME280;4574;51.072;17.174;2023-08-31T05:13:09;99397.38;;;15.26;100.00
9077;BME280;4574;51.072;17.174;2023-08-31T05:15:38;99393.53;;;15.29;100.00
9077;BME280;4574;51.072;17.174;2023-08-31T05:18:06;99393.34;;;15.30;100.00
9077;BME280;4574;51.072;17.174;2023-08-31T05:20:36;99391.31;;;15.32;100.00
9077;BME280;4574;51.072;17.174;2023-08-31T05:23:05;99393.97;;;15.32;100.00
9077;BME280;4574;51.072;17.174;2023-08-31T05:25:34;99395.63;;;15.33;100.00
9077;BME280;4574;51.072;17.174;2023-08-31T05:28:03;99402.22;;;15.37;100.00
9077;BME280;4574;51.072;17.174;2023-08-31T05:30:31;99411.47;;;15.41;100.00
9077;BME280;4574;51.072;17.174;2023-08-31T05:33:01;99412.09;;;15.43;100.00
9077;BME280;4574;51.072;17.174;2023-08-31T05:35:31;99421.75;;;15.44;100.00
9077;BME280;4574;51.072;17.174;2023-08-31T05:37:59;99425.84;;;15.47;100.00
9077;BME280;4574;51.072;17.174;2023-08-31T05:40:29;99425.66;;;15.48;100.00
9077;BME280;4574;51.072;17.174;2023-08-31T05:42:58;99418.47;;;15.49;100.00
9077;BME280;4574;51.072;17.174;2023-08-31T05:45:26;99418.47;;;15.49;100.00
9077;BME280;4574;51.072;17.174;2023-08-31T05:47:55;99420.97;;;15.50;100.00
9077;BME280;4574;51.072;17.174;2023-08-31T05:50:23;99426.72;;;15.54;100.00
9077;BME280;4574;51.072;17.174;2023-08-31T05:52:52;99414.38;;;15.46;100.00
9077;BME280;4574;51.072;17.174;2023-08-31T05:55:21;99438.63;;;15.58;100.00
9077;BME280;4574;51.072;17.174;2023-08-31T05:57:51;99452.41;;;15.61;100.00
9077;BME280;4574;51.072;17.174;2023-08-31T06:00:20;99446.06;;;15.62;100.00
9077;BME280;4574;51.072;17.174;2023-08-31T06:02:48;99444.81;;;15.65;100.00
9077;BME280;4574;51.072;17.174;2023-08-31T06:05:17;99441.97;;;15.66;100.00
9077;BME280;4574;51.072;17.174;2023-08-31T06:07:46;99449.38;;;15.71;100.00
9077;BME280;4574;51.072;17.174;2023-08-31T06:10:15;99452.66;;;15.73;100.00
9077;BME280;4574;51.072;17.174;2023-08-31T06:12:43;99455.97;;;15.75;100.00
9077;BME280;4574;51.072;17.174;2023-08-31T06:15:14;99438.47;;;15.66;100.00
9077;BME280;4574;51.072;17.174;2023-08-31T06:17:43;99460.09;;;15.77;100.00
9077;BME280;4574;51.072;17.174;2023-08-31T06:20:12;99461.75;;;15.78;100.00
9077;BME280;4574;51.072;17.174;2023-08-31T06:22:41;99457.22;;;15.79;100.00
9077;BME280;4574;51.072;17.174;2023-08-31T06:25:09;99451.47;;;15.82;100.00
9077;BME280;4574;51.072;17.174;2023-08-31T06:27:39;99450.91;;;15.86;100.00
9077;BME280;4574;51.072;17.174;2023-08-31T06:30:09;99458.28;;;15.91;100.00
9077;BME280;4574;51.072;17.174;2023-08-31T06:32:40;99456.88;;;15.95;100.00
9077;BME280;4574;51.072;17.174;2023-08-31T06:35:09;99460.19;;;16.03;100.00
9077;BME280;4574;51.072;17.174;2023-08-31T06:37:37;99461.88;;;16.10;100.00
9077;BME280;4574;51.072;17.174;2023-08-31T06:40:07;99460.44;;;16.14;100.00
9077;BME280;4574;51.072;17.174;2023-08-31T06:42:36;99474.66;;;16.21;100.00
9077;BME280;4574;51.072;17.174;2023-08-31T06:45:06;99468.94;;;16.24;100.00
9077;BME280;4574;51.072;17.174;2023-08-31T06:47:36;99469.31;;;16.28;100.00
9077;BME280;4574;51.072;17.174;2023-08-31T06:50:07;99468.38;;;16.35;100.00
9077;BME280;4574;51.072;17.174;2023-08-31T06:52:35;99474.34;;;16.44;100.00
9077;BME280;4574;51.072;17.174;2023-08-31T06:55:04;99477.03;;;16.50;100.00
9077;BME280;4574;51.072;17.174;2023-08-31T06:57:33;99478.91;;;16.56;100.00
9077;BME280;4574;51.072;17.174;2023-08-31T07:00:01;99473.56;;;16.63;100.00
9077;BME280;4574;51.072;17.174;2023-08-31T07:02:33;99478.31;;;16.67;100.00
9077;BME280;4574;51.072;17.174;2023-08-31T07:05:02;99479.31;;;16.73;100.00
9077;BME280;4574;51.072;17.174;2023-08-31T07:07:32;99482.22;;;16.78;100.00
9077;BME280;4574;51.072;17.174;2023-08-31T07:10:01;99484.69;;;16.86;100.00
9077;BME280;4574;51.072;17.174;2023-08-31T07:12:29;99478.50;;;16.92;100.00
9077;BME280;4574;51.072;17.174;2023-08-31T07:14:58;99481.63;;;16.95;100.00
9077;BME280;4574;51.072;17.174;2023-08-31T07:17:27;99476.91;;;17.04;100.00
9077;BME280;4574;51.072;17.174;2023-08-31T07:19:55;99487.41;;;17.12;100.00
9077;BME280;4574;51.072;17.174;2023-08-31T07:22:25;99485.13;;;17.15;100.00
9077;BME280;4574;51.072;17.174;2023-08-31T07:24:56;99487.59;;;17.23;100.00
9077;BME280;4574;51.072;17.174;2023-08-31T07:27:25;99495.25;;;17.33;100.00
9077;BME280;4574;51.072;17.174;2023-08-31T07:29:54;99496.25;;;17.45;100.00
9077;BME280;4574;51.072;17.174;2023-08-31T07:32:23;99500.78;;;17.51;100.00
9077;BME280;4574;51.072;17.174;2023-08-31T07:34:51;99502.81;;;17.61;100.00
9077;BME280;4574;51.072;17.174;2023-08-31T07:37:19;99509.59;;;17.70;100.00
9077;BME280;4574;51.072;17.174;2023-08-31T07:39:48;99518.00;;;17.80;100.00
9077;BME280;4574;51.072;17.174;2023-08-31T07:42:18;99520.88;;;17.85;100.00
9077;BME280;4574;51.072;17.174;2023-08-31T07:44:46;99516.75;;;17.96;100.00
9077;BME280;4574;51.072;17.174;2023-08-31T07:47:15;99531.56;;;18.05;100.00
9077;BME280;4574;51.072;17.174;2023-08-31T07:49:43;99529.44;;;18.13;100.00
9077;BME280;4574;51.072;17.174;2023-08-31T07:52:12;99535.22;;;18.17;100.00
9077;BME280;4574;51.072;17.174;2023-08-31T07:54:40;99534.81;;;18.20;100.00
9077;BME280;4574;51.072;17.174;2023-08-31T07:57:09;99531.09;;;18.21;100.00
9077;BME280;4574;51.072;17.174;2023-08-31T07:59:39;99539.75;;;18.23;100.00
9077;BME280;4574;51.072;17.174;2023-08-31T08:02:08;99537.88;;;18.30;100.00
9077;BME280;4574;51.072;17.174;2023-08-31T08:04:36;99524.69;;;18.28;100.00
9077;BME280;4574;51.072;17.174;2023-08-31T08:07:04;99536.97;;;18.49;100.00
9077;BME280;4574;51.072;17.174;2023-08-31T08:09:33;99546.19;;;18.59;100.00
9077;BME280;4574;51.072;17.174;2023-08-31T08:12:02;99549.03;;;18.71;100.00
9077;BME280;4574;51.072;17.174;2023-08-31T08:14:31;99546.00;;;18.91;100.00
9077;BME280;4574;51.072;17.174;2023-08-31T08:17:00;99551.53;;;19.03;100.00
9077;BME280;4574;51.072;17.174;2023-08-31T08:19:30;99569.44;;;19.09;100.00
9077;BME280;4574;51.072;17.174;2023-08-31T08:21:58;99552.50;;;19.08;100.00
9077;BME280;4574;51.072;17.174;2023-08-31T08:24:27;99556.22;;;19.07;100.00
9077;BME280;4574;51.072;17.174;2023-08-31T08:26:56;99549.97;;;19.13;100.00
9077;BME280;4574;51.072;17.174;2023-08-31T08:29:25;99554.16;;;19.16;100.00
9077;BME280;4574;51.072;17.174;2023-08-31T08:31:53;99554.50;;;19.19;100.00
9077;BME280;4574;51.072;17.174;2023-08-31T08:34:23;99557.44;;;19.18;100.00
9077;BME280;4574;51.072;17.174;2023-08-31T08:36:54;99553.50;;;19.14;100.00
9077;BME280;4574;51.072;17.174;2023-08-31T08:39:22;99566.53;;;19.17;100.00
9077;BME280;4574;51.072;17.174;2023-08-31T08:41:52;99572.28;;;19.14;100.00
9077;BME280;4574;51.072;17.174;2023-08-31T08:44:24;99570.84;;;19.18;100.00
9077;BME280;4574;51.072;17.174;2023-08-31T08:46:53;99559.63;;;19.27;100.00
9077;BME280;4574;51.072;17.174;2023-08-31T08:49:23;99573.00;;;19.34;100.00
9077;BME280;4574;51.072;17.174;2023-08-31T08:51:52;99569.72;;;19.32;100.00
9077;BME280;4574;51.072;17.174;2023-08-31T08:54:22;99574.31;;;19.25;100.00
9077;BME280;4574;51.072;17.174;2023-08-31T08:56:50;99581.34;;;19.19;100.00
9077;BME280;4574;51.072;17.174;2023-08-31T08:59:19;99591.72;;;19.09;100.00
9077;BME280;4574;51.072;17.174;2023-08-31T09:01:48;99577.56;;;18.96;100.00
9077;BME280;4574;51.072;17.174;2023-08-31T09:04:16;99578.28;;;18.79;100.00
9077;BME280;4574;51.072;17.174;2023-08-31T09:06:46;99583.22;;;18.82;100.00
9077;BME280;4574;51.072;17.174;2023-08-31T09:09:15;99589.06;;;18.72;100.00
9077;BME280;4574;51.072;17.174;2023-08-31T09:11:45;99598.13;;;18.71;100.00
9077;BME280;4574;51.072;17.174;2023-08-31T09:14:14;99607.28;;;18.51;100.00
9077;BME280;4574;51.072;17.174;2023-08-31T09:16:45;99606.91;;;18.21;100.00
9077;BME280;4574;51.072;17.174;2023-08-31T09:19:18;99616.66;;;17.96;100.00
9077;BME280;4574;51.072;17.174;2023-08-31T09:21:49;99619.78;;;17.87;100.00
9077;BME280;4574;51.072;17.174;2023-08-31T09:24:18;99624.69;;;17.77;100.00
9077;BME280;4574;51.072;17.174;2023-08-31T09:26:48;99621.00;;;17.71;100.00
9077;BME280;4574;51.072;17.174;2023-08-31T09:29:17;99628.41;;;17.56;100.00
9077;BME280;4574;51.072;17.174;2023-08-31T09:31:45;99642.81;;;17.43;100.00
9077;BME280;4574;51.072;17.174;2023-08-31T09:34:15;99647.31;;;17.42;100.00
9077;BME280;4574;51.072;17.174;2023-08-31T09:36:44;99653.72;;;17.41;100.00
9077;BME280;4574;51.072;17.174;2023-08-31T09:39:14;99647.13;;;17.37;100.00
9077;BME280;4574;51.072;17.174;2023-08-31T09:41:52;99663.34;;;17.29;100.00
9077;BME280;4574;51.072;17.174;2023-08-31T09:44:22;99663.75;;;17.20;100.00
9077;BME280;4574;51.072;17.174;2023-08-31T09:46:51;99667.19;;;17.07;100.00
9077;BME280;4574;51.072;17.174;2023-08-31T09:49:21;99671.91;;;17.05;100.00
9077;BME280;4574;51.072;17.174;2023-08-31T09:51:50;99677.63;;;16.96;100.00
9077;BME280;4574;51.072;17.174;2023-08-31T09:54:21;99682.53;;;16.86;100.00
9077;BME280;4574;51.072;17.174;2023-08-31T09:56:51;99680.47;;;16.88;100.00
9077;BME280;4574;51.072;17.174;2023-08-31T09:59:21;99687.41;;;16.76;100.00
9077;BME280;4574;51.072;17.174;2023-08-31T10:01:52;99698.03;;;16.63;100.00
9077;BME280;4574;51.072;17.174;2023-08-31T10:04:23;99701.72;;;16.62;100.00
9077;BME280;4574;51.072;17.174;2023-08-31T10:06:52;99698.03;;;16.63;100.00
9077;BME280;4574;51.072;17.174;2023-08-31T10:09:22;99700.38;;;16.38;100.00
9077;BME280;4574;51.072;17.174;2023-08-31T10:11:51;99704.06;;;16.37;100.00
9077;BME280;4574;51.072;17.174;2023-08-31T10:14:20;99714.13;;;16.35;100.00
9077;BME280;4574;51.072;17.174;2023-08-31T10:16:50;99708.97;;;16.34;100.00
9077;BME280;4574;51.072;17.174;2023-08-31T10:19:20;99707.31;;;16.33;100.00
9077;BME280;4574;51.072;17.174;2023-08-31T10:21:49;99709.31;;;16.31;100.00
9077;BME280;4574;51.072;17.174;2023-08-31T10:24:18;99723.44;;;16.46;100.00
9077;BME280;4574;51.072;17.174;2023-08-31T10:26:48;99715.41;;;16.39;100.00
9077;BME280;4574;51.072;17.174;2023-08-31T10:29:27;99723.44;;;16.46;100.00
9077;BME280;4574;51.072;17.174;2023-08-31T10:32:00;99728.16;;;16.44;100.00
9077;BME280;4574;51.072;17.174;2023-08-31T10:34:36;99724.28;;;16.53;100.00
9077;BME280;4574;51.072;17.174;2023-08-31T10:37:19;99719.78;;;16.53;100.00
9077;BME280;4574;51.072;17.174;2023-08-31T10:40:06;99705.59;;;16.53;100.00
9077;BME280;4574;51.072;17.174;2023-08-31T10:42:43;99727.28;;;16.71;100.00
9077;BME280;4574;51.072;17.174;2023-08-31T10:45:12;99730.56;;;16.73;100.00
9077;BME280;4574;51.072;17.174;2023-08-31T10:47:42;99732.00;;;16.69;100.00
9077;BME280;4574;51.072;17.174;2023-08-31T10:50:20;99733.88;;;16.75;100.00
9077;BME280;4574;51.072;17.174;2023-08-31T10:52:49;99727.50;;;16.76;100.00
9077;BME280;4574;51.072;17.174;2023-08-31T10:55:17;99727.16;;;16.85;100.00
9077;BME280;4574;51.072;17.174;2023-08-31T10:57:48;99711.97;;;16.92;100.00
9077;BME280;4574;51.072;17.174;2023-08-31T11:00:46;99721.69;;;17.06;100.00
9077;BME280;4574;51.072;17.174;2023-08-31T11:03:15;99723.38;;;17.14;100.00
9077;BME280;4574;51.072;17.174;2023-08-31T11:05:50;99720.50;;;17.15;100.00
9077;BME280;4574;51.072;17.174;2023-08-31T11:08:22;99724.25;;;17.21;100.00
9077;BME280;4574;51.072;17.174;2023-08-31T11:10:51;99721.81;;;17.32;100.00
9077;BME280;4574;51.072;17.174;2023-08-31T11:13:22;99717.56;;;17.57;100.00
9077;BME280;4574;51.072;17.174;2023-08-31T11:15:51;99709.16;;;17.79;100.00
9077;BME280;4574;51.072;17.174;2023-08-31T11:18:21;99707.09;;;18.07;100.00
9077;BME280;4574;51.072;17.174;2023-08-31T11:20:50;99708.31;;;18.24;100.00
9077;BME280;4574;51.072;17.174;2023-08-31T11:23:18;99687.50;;;18.13;100.00
9077;BME280;4574;51.072;17.174;2023-08-31T11:25:47;99702.56;;;18.27;100.00
9077;BME280;4574;51.072;17.174;2023-08-31T11:28:16;99702.34;;;18.35;100.00
9077;BME280;4574;51.072;17.174;2023-08-31T11:30:48;99697.19;;;18.40;100.00
9077;BME280;4574;51.072;17.174;2023-08-31T11:33:18;99701.28;;;18.49;100.00
9077;BME280;4574;51.072;17.174;2023-08-31T11:35:46;99700.41;;;18.75;100.00
9077;BME280;4574;51.072;17.174;2023-08-31T11:38:16;99698.66;;;19.06;100.00
9077;BME280;4574;51.072;17.174;2023-08-31T11:40:46;99703.06;;;19.38;100.00
9077;BME280;4574;51.072;17.174;2023-08-31T11:43:19;99696.75;;;19.57;100.00
9077;BME280;4574;51.072;17.174;2023-08-31T11:45:49;99687.28;;;19.79;100.00
9077;BME280;4574;51.072;17.174;2023-08-31T11:48:18;99694.56;;;20.03;100.00
9077;BME280;4574;51.072;17.174;2023-08-31T11:50:47;99690.00;;;20.27;100.00
9077;BME280;4574;51.072;17.174;2023-08-31T11:53:17;99694.38;;;20.46;100.00
9077;BME280;4574;51.072;17.174;2023-08-31T11:55:52;99702.06;;;20.61;100.00
9077;BME280;4574;51.072;17.174;2023-08-31T11:58:21;99698.72;;;20.65;100.00
9077;BME280;4574;51.072;17.174;2023-08-31T12:00:57;99700.84;;;20.81;100.00
9077;BME280;4574;51.072;17.174;2023-08-31T12:03:26;99694.16;;;21.02;97.97
9077;BME280;4574;51.072;17.174;2023-08-31T12:06:15;99700.69;;;21.12;95.79
9077;BME280;4574;51.072;17.174;2023-08-31T12:08:46;99715.00;;;21.24;97.63
9077;BME280;4574;51.072;17.174;2023-08-31T12:11:15;99698.75;;;21.01;94.69
9077;BME280;4574;51.072;17.174;2023-08-31T12:13:44;99694.31;;;20.89;98.40
9077;BME280;4574;51.072;17.174;2023-08-31T12:16:14;99704.47;;;20.69;96.31
9077;BME280;4574;51.072;17.174;2023-08-31T12:18:44;99700.69;;;20.34;98.50
9077;BME280;4574;51.072;17.174;2023-08-31T12:21:14;99698.34;;;20.20;99.15
9077;BME280;4574;51.072;17.174;2023-08-31T12:23:42;99694.88;;;20.13;99.84
9077;BME280;4574;51.072;17.174;2023-08-31T12:26:11;99700.50;;;20.11;100.00
9077;BME280;4574;51.072;17.174;2023-08-31T12:28:39;99701.38;;;20.05;100.00
9077;BME280;4574;51.072;17.174;2023-08-31T12:31:08;99692.53;;;19.98;100.00
9077;BME280;4574;51.072;17.174;2023-08-31T12:33:38;99686.50;;;20.03;100.00
9077;BME280;4574;51.072;17.174;2023-08-31T12:36:07;99695.13;;;20.11;100.00
9077;BME280;4574;51.072;17.174;2023-08-31T12:38:35;99690.22;;;20.02;98.82
9077;BME280;4574;51.072;17.174;2023-08-31T12:41:04;99695.16;;;20.05;100.00
9077;BME280;4574;51.072;17.174;2023-08-31T12:43:33;99696.00;;;20.05;100.00
9077;BME280;4574;51.072;17.174;2023-08-31T12:46:02;99698.91;;;20.04;100.00
9077;BME280;4574;51.072;17.174;2023-08-31T12:48:32;99685.63;;;20.09;100.00
9077;BME280;4574;51.072;17.174;2023-08-31T12:51:02;99682.78;;;20.04;100.00
9077;BME280;4574;51.072;17.174;2023-08-31T12:53:31;99686.06;;;20.06;100.00
9077;BME280;4574;51.072;17.174;2023-08-31T12:55:59;99692.59;;;20.16;100.00
9077;BME280;4574;51.072;17.174;2023-08-31T12:58:27;99691.75;;;20.16;100.00
9077;BME280;4574;51.072;17.174;2023-08-31T13:00:57;99693.81;;;20.20;100.00
9077;BME280;4574;51.072;17.174;2023-08-31T13:03:26;99695.44;;;20.21;98.46
9077;BME280;4574;51.072;17.174;2023-08-31T13:05:56;99711.72;;;20.26;99.39
9077;BME280;4574;51.072;17.174;2023-08-31T13:08:26;99702.59;;;20.51;99.84
9077;BME280;4574;51.072;17.174;2023-08-31T13:10:55;99692.06;;;20.68;99.37
9077;BME280;4574;51.072;17.174;2023-08-31T13:13:24;99694.63;;;20.99;99.63